sensor_id;sensor_type;location;lat;lon;timestamp;temperature;humidity
20929;DHT22;21895;47.072;15.132;2023-08-21T00:00:41;19.60;99.90
20929;DHT22;21895;47.072;15.132;2023-08-21T00:03:08;19.70;99.90
20929;DHT22;21895;47.072;15.132;2023-08-21T00:05:35;19.90;99.90
20929;DHT22;21895;47.072;15.132;2023-08-21T00:08:01;20.20;99.90
20929;DHT22;21895;47.072;15.132;2023-08-21T00:10:31;20.30;99.90
20929;DHT22;21895;47.072;15.132;2023-08-21T00:12:59;20.40;99.90
20929;DHT22;21895;47.072;15.132;2023-08-21T00:15:25;20.50;99.90
20929;DHT22;21895;47.072;15.132;2023-08-21T00:17:52;20.40;99.90
20929;DHT22;21895;47.072;15.132;2023-08-21T00:20:18;20.40;99.90
20929;DHT22;21895;47.072;15.132;2023-08-21T00:22:45;20.30;99.90
20929;DHT22;21895;47.072;15.132;2023-08-21T00:25:11;20.30;99.90
20929;DHT22;21895;47.072;15.132;2023-08-21T00:27:38;20.20;99.90
20929;DHT22;21895;47.072;15.132;2023-08-21T00:30:05;20.10;99.90
20929;DHT22;21895;47.072;15.132;2023-08-21T00:32:32;20.00;99.90
20929;DHT22;21895;47.072;15.132;2023-08-21T00:34:59;19.90;99.90
20929;DHT22;21895;47.072;15.132;2023-08-21T00:37:26;19.90;99.90
20929;DHT22;21895;47.072;15.132;2023-08-21T00:39:52;20.00;99.90
20929;DHT22;21895;47.072;15.132;2023-08-21T00:42:19;20.10;99.90
20929;DHT22;21895;47.072;15.132;2023-08-21T00:44:45;20.10;99.90
20929;DHT22;21895;47.072;15.132;2023-08-21T00:47:12;20.20;99.90
20929;DHT22;21895;47.072;15.132;2023-08-21T00:49:39;20.20;99.90
20929;DHT22;21895;47.072;15.132;2023-08-21T00:52:08;20.10;99.90
20929;DHT22;21895;47.072;15.132;2023-08-21T00:54:37;20.20;99.90
20929;DHT22;21895;47.072;15.132;2023-08-21T00:57:04;20.20;99.90
20929;DHT22;21895;47.072;15.132;2023-08-21T00:59:31;20.20;99.90
20929;DHT22;21895;47.072;15.132;2023-08-21T01:01:58;20.20;99.90
20929;DHT22;21895;47.072;15.132;2023-08-21T01:04:25;20.30;99.90
20929;DHT22;21895;47.072;15.132;2023-08-21T01:06:52;20.10;99.90
20929;DHT22;21895;47.072;15.132;2023-08-21T01:09:33;19.90;99.90
20929;DHT22;21895;47.072;15.132;2023-08-21T01:12:22;19.60;99.90
20929;DHT22;21895;47.072;15.132;2023-08-21T01:14:59;19.40;99.90
20929;DHT22;21895;47.072;15.132;2023-08-21T01:17:30;19.40;99.90
20929;DHT22;21895;47.072;15.132;2023-08-21T01:19:58;19.40;99.90
20929;DHT22;21895;47.072;15.132;2023-08-21T01:22:27;19.30;99.90
20929;DHT22;21895;47.072;15.132;2023-08-21T01:25:01;19.30;99.90
20929;DHT22;21895;47.072;15.132;2023-08-21T01:27:28;19.20;99.90
20929;DHT22;21895;47.072;15.132;2023-08-21T01:29:54;19.10;99.90
20929;DHT22;21895;47.072;15.132;2023-08-21T01:32:34;19.00;99.90
20929;DHT22;21895;47.072;15.132;2023-08-21T01:35:28;19.00;99.90
20929;DHT22;21895;47.072;15.132;2023-08-21T01:37:56;18.90;99.90
20929;DHT22;21895;47.072;15.132;2023-08-21T01:40:24;18.90;99.90
20929;DHT22;21895;47.072;15.132;2023-08-21T01:42:53;18.80;99.90
20929;DHT22;21895;47.072;15.132;2023-08-21T01:45:22;18.70;99.90
20929;DHT22;21895;47.072;15.132;2023-08-21T01:47:49;18.80;99.90
20929;DHT22;21895;47.072;15.132;2023-08-21T01:50:15;18.90;99.90
20929;DHT22;21895;47.072;15.132;2023-08-21T01:52:42;18.80;99.90
20929;DHT22;21895;47.072;15.132;2023-08-21T01:55:09;18.70;99.90
20929;DHT22;21895;47.072;15.132;2023-08-21T01:57:36;18.60;99.90
20929;DHT22;21895;47.072;15.132;2023-08-21T02:00:03;18.60;99.90
20929;DHT22;21895;47.072;15.132;2023-08-21T02:02:31;18.70;99.90
20929;DHT22;21895;47.072;15.132;2023-08-21T02:04:57;18.70;99.90
20929;DHT22;21895;47.072;15.132;2023-08-21T02:07:24;18.80;99.90
20929;DHT22;21895;47.072;15.132;2023-08-21T02:09:50;18.90;99.90
20929;DHT22;21895;47.072;15.132;2023-08-21T02:12:17;19.00;99.90
20929;DHT22;21895;47.072;15.132;2023-08-21T02:14:44;18.90;99.90
20929;DHT22;21895;47.072;15.132;2023-08-21T02:17:11;18.60;99.90
20929;DHT22;21895;47.072;15.132;2023-08-21T02:19:37;18.50;99.90
20929;DHT22;21895;47.072;15.132;2023-08-21T02:22:04;18.50;99.90
20929;DHT22;21895;47.072;15.132;2023-08-21T02:24:30;18.40;99.90
20929;DHT22;21895;47.072;15.132;2023-08-21T02:26:57;18.40;99.90
20929;DHT22;21895;47.072;15.132;2023-08-21T02:29:23;18.40;99.90
20929;DHT22;21895;47.072;15.132;2023-08-21T02:31:50;18.30;99.90
20929;DHT22;21895;47.072;15.132;2023-08-21T02:34:17;18.40;99.90
20929;DHT22;21895;47.072;15.132;2023-08-21T02:36:43;18.40;99.90
20929;DHT22;21895;47.072;15.132;2023-08-21T02:39:10;18.40;99.90
20929;DHT22;21895;47.072;15.132;2023-08-21T02:41:36;18.40;99.90
20929;DHT22;21895;47.072;15.132;2023-08-21T02:44:03;18.50;99.90
20929;DHT22;21895;47.072;15.132;2023-08-21T02:46:30;18.60;99.90
20929;DHT22;21895;47.072;15.132;2023-08-21T02:48:56;18.60;99.90
20929;DHT22;21895;47.072;15.132;2023-08-21T02:51:23;18.60;99.90
20929;DHT22;21895;47.072;15.132;2023-08-21T02:53:49;18.60;99.90
20929;DHT22;21895;47.072;15.132;2023-08-21T02:56:16;18.80;99.90
20929;DHT22;21895;47.072;15.132;2023-08-21T02:58:43;18.90;99.90
20929;DHT22;21895;47.072;15.132;2023-08-21T03:01:09;19.00;99.90
20929;DHT22;21895;47.072;15.132;2023-08-21T03:03:36;19.20;99.90
20929;DHT22;21895;47.072;15.132;2023-08-21T03:06:03;19.20;99.90
20929;DHT22;21895;47.072;15.132;2023-08-21T03:08:29;19.20;99.90
20929;DHT22;21895;47.072;15.132;2023-08-21T03:10:56;19.20;99.90
20929;DHT22;21895;47.072;15.132;2023-08-21T03:13:22;19.30;99.90
20929;DHT22;21895;47.072;15.132;2023-08-21T03:15:49;19.40;99.90
20929;DHT22;21895;47.072;15.132;2023-08-21T03:18:15;19.40;99.90
20929;DHT22;21895;47.072;15.132;2023-08-21T03:20:45;19.40;99.90
20929;DHT22;21895;47.072;15.132;2023-08-21T03:23:13;19.40;99.90
20929;DHT22;21895;47.072;15.132;2023-08-21T03:25:40;19.40;99.90
20929;DHT22;21895;47.072;15.132;2023-08-21T03:28:07;19.30;99.90
20929;DHT22;21895;47.072;15.132;2023-08-21T03:30:33;19.10;99.90
20929;DHT22;21895;47.072;15.132;2023-08-21T03:33:00;18.90;99.90
20929;DHT22;21895;47.072;15.132;2023-08-21T03:35:26;18.60;99.90
20929;DHT22;21895;47.072;15.132;2023-08-21T03:37:53;18.60;99.90
20929;DHT22;21895;47.072;15.132;2023-08-21T03:40:19;18.40;99.90
20929;DHT22;21895;47.072;15.132;2023-08-21T03:42:46;18.40;99.90
20929;DHT22;21895;47.072;15.132;2023-08-21T03:45:13;18.30;99.90
20929;DHT22;21895;47.072;15.132;2023-08-21T03:47:42;18.30;99.90
20929;DHT22;21895;47.072;15.132;2023-08-21T03:50:09;18.60;99.90
20929;DHT22;21895;47.072;15.132;2023-08-21T03:52:36;18.70;99.90
20929;DHT22;21895;47.072;15.132;2023-08-21T03:55:03;18.90;99.90
20929;DHT22;21895;47.072;15.132;2023-08-21T03:57:30;19.00;99.90
20929;DHT22;21895;47.072;15.132;2023-08-21T03:59:56;19.20;99.90
20929;DHT22;21895;47.072;15.132;2023-08-21T04:02:23;19.20;99.90
20929;DHT22;21895;47.072;15.132;2023-08-21T04:04:52;19.20;99.90
20929;DHT22;21895;47.072;15.132;2023-08-21T04:07:19;19.30;99.90
20929;DHT22;21895;47.072;15.132;2023-08-21T04:09:45;19.30;99.90
20929;DHT22;21895;47.072;15.132;2023-08-21T04:12:12;19.20;99.90
20929;DHT22;21895;47.072;15.132;2023-08-21T04:14:38;19.30;99.90
20929;DHT22;21895;47.072;15.132;2023-08-21T04:17:05;19.20;99.90
20929;DHT22;21895;47.072;15.132;2023-08-21T04:19:32;19.30;99.90
20929;DHT22;21895;47.072;15.132;2023-08-21T04:22:00;19.20;99.90
20929;DHT22;21895;47.072;15.132;2023-08-21T04:24:26;19.20;99.90
20929;DHT22;21895;47.072;15.132;2023-08-21T04:26:53;19.20;99.90
20929;DHT22;21895;47.072;15.132;2023-08-21T04:29:19;19.20;99.90
20929;DHT22;21895;47.072;15.132;2023-08-21T04:31:46;19.20;99.90
20929;DHT22;21895;47.072;15.132;2023-08-21T04:34:12;19.20;99.90
20929;DHT22;21895;47.072;15.132;2023-08-21T04:36:39;19.20;99.90
20929;DHT22;21895;47.072;15.132;2023-08-21T04:39:05;19.30;99.90
20929;DHT22;21895;47.072;15.132;2023-08-21T04:41:32;19.30;99.90
20929;DHT22;21895;47.072;15.132;2023-08-21T04:43:59;19.50;99.90
20929;DHT22;21895;47.072;15.132;2023-08-21T04:46:26;19.50;99.90
20929;DHT22;21895;47.072;15.132;2023-08-21T04:48:52;19.50;99.90
20929;DHT22;21895;47.072;15.132;2023-08-21T04:51:19;19.60;99.90
20929;DHT22;21895;47.072;15.132;2023-08-21T04:53:46;19.60;99.90
20929;DHT22;21895;47.072;15.132;2023-08-21T04:56:13;19.50;99.90
20929;DHT22;21895;47.072;15.132;2023-08-21T04:58:39;19.40;99.90
20929;DHT22;21895;47.072;15.132;2023-08-21T05:01:06;19.30;99.90
20929;DHT22;21895;47.072;15.132;2023-08-21T05:03:33;19.20;99.90
20929;DHT22;21895;47.072;15.132;2023-08-21T05:05:59;19.20;99.90
20929;DHT22;21895;47.072;15.132;2023-08-21T05:08:26;19.20;99.90
20929;DHT22;21895;47.072;15.132;2023-08-21T05:10:57;19.30;99.90
20929;DHT22;21895;47.072;15.132;2023-08-21T05:13:24;19.20;99.90
20929;DHT22;21895;47.072;15.132;2023-08-21T05:15:55;19.20;99.90
20929;DHT22;21895;47.072;15.132;2023-08-21T05:18:24;19.30;99.90
20929;DHT22;21895;47.072;15.132;2023-08-21T05:20:54;19.30;99.90
20929;DHT22;21895;47.072;15.132;2023-08-21T05:23:22;19.40;99.90
20929;DHT22;21895;47.072;15.132;2023-08-21T05:25:49;19.50;99.90
20929;DHT22;21895;47.072;15.132;2023-08-21T05:28:16;19.50;99.90
20929;DHT22;21895;47.072;15.132;2023-08-21T05:30:42;19.70;99.90
20929;DHT22;21895;47.072;15.132;2023-08-21T05:33:09;19.80;99.90
20929;DHT22;21895;47.072;15.132;2023-08-21T05:35:36;20.00;99.90
20929;DHT22;21895;47.072;15.132;2023-08-21T05:38:03;20.20;99.90
20929;DHT22;21895;47.072;15.132;2023-08-21T05:40:30;20.40;99.90
20929;DHT22;21895;47.072;15.132;2023-08-21T05:42:57;20.70;99.90
20929;DHT22;21895;47.072;15.132;2023-08-21T05:45:24;21.10;99.90
20929;DHT22;21895;47.072;15.132;2023-08-21T05:47:50;21.50;99.90
20929;DHT22;21895;47.072;15.132;2023-08-21T05:50:17;21.80;99.90
20929;DHT22;21895;47.072;15.132;2023-08-21T05:52:43;22.00;99.90
20929;DHT22;21895;47.072;15.132;2023-08-21T05:55:10;22.20;99.90
20929;DHT22;21895;47.072;15.132;2023-08-21T05:57:37;22.40;99.90
20929;DHT22;21895;47.072;15.132;2023-08-21T06:00:04;22.60;99.90
20929;DHT22;21895;47.072;15.132;2023-08-21T06:02:34;22.70;99.90
20929;DHT22;21895;47.072;15.132;2023-08-21T06:05:01;22.80;99.90
20929;DHT22;21895;47.072;15.132;2023-08-21T06:07:29;23.10;99.90
20929;DHT22;21895;47.072;15.132;2023-08-21T06:09:55;23.30;99.90
20929;DHT22;21895;47.072;15.132;2023-08-21T06:12:22;23.50;99.90
20929;DHT22;21895;47.072;15.132;2023-08-21T06:14:48;23.60;99.90
20929;DHT22;21895;47.072;15.132;2023-08-21T06:17:15;23.90;99.90
20929;DHT22;21895;47.072;15.132;2023-08-21T06:19:42;24.00;99.90
20929;DHT22;21895;47.072;15.132;2023-08-21T06:22:09;24.10;99.90
20929;DHT22;21895;47.072;15.132;2023-08-21T06:24:36;24.20;99.90
20929;DHT22;21895;47.072;15.132;2023-08-21T06:27:02;24.20;99.90
20929;DHT22;21895;47.072;15.132;2023-08-21T06:29:31;24.30;99.90
20929;DHT22;21895;47.072;15.132;2023-08-21T06:31:58;24.60;99.90
20929;DHT22;21895;47.072;15.132;2023-08-21T06:34:24;24.70;99.90
20929;DHT22;21895;47.072;15.132;2023-08-21T06:36:51;24.90;99.90
20929;DHT22;21895;47.072;15.132;2023-08-21T06:39:17;25.00;99.90
20929;DHT22;21895;47.072;15.132;2023-08-21T06:41:44;25.10;99.90
20929;DHT22;21895;47.072;15.132;2023-08-21T06:44:10;25.10;99.90
20929;DHT22;21895;47.072;15.132;2023-08-21T06:46:37;25.30;99.90
20929;DHT22;21895;47.072;15.132;2023-08-21T06:49:04;25.40;99.90
20929;DHT22;21895;47.072;15.132;2023-08-21T06:51:30;25.40;99.90
20929;DHT22;21895;47.072;15.132;2023-08-21T06:53:57;25.40;99.90
20929;DHT22;21895;47.072;15.132;2023-08-21T06:56:23;25.60;99.90
20929;DHT22;21895;47.072;15.132;2023-08-21T06:58:50;25.70;99.90
20929;DHT22;21895;47.072;15.132;2023-08-21T07:01:16;25.80;99.90
20929;DHT22;21895;47.072;15.132;2023-08-21T07:03:43;25.90;99.90
20929;DHT22;21895;47.072;15.132;2023-08-21T07:06:10;26.10;99.90
20929;DHT22;21895;47.072;15.132;2023-08-21T07:08:36;26.30;99.90
20929;DHT22;21895;47.072;15.132;2023-08-21T07:11:06;26.50;99.90
20929;DHT22;21895;47.072;15.132;2023-08-21T07:13:34;26.70;99.90
20929;DHT22;21895;47.072;15.132;2023-08-21T07:16:01;26.80;99.90
20929;DHT22;21895;47.072;15.132;2023-08-21T07:18:34;27.00;99.90
20929;DHT22;21895;47.072;15.132;2023-08-21T07:21:02;27.00;99.90
20929;DHT22;21895;47.072;15.132;2023-08-21T07:23:41;27.30;99.90
20929;DHT22;21895;47.072;15.132;2023-08-21T07:26:07;27.40;99.90
20929;DHT22;21895;47.072;15.132;2023-08-21T07:28:34;27.60;99.90
20929;DHT22;21895;47.072;15.132;2023-08-21T07:31:01;27.80;99.90
20929;DHT22;21895;47.072;15.132;2023-08-21T07:33:28;27.90;99.90
20929;DHT22;21895;47.072;15.132;2023-08-21T07:36:03;28.00;99.90
20929;DHT22;21895;47.072;15.132;2023-08-21T07:38:31;28.20;99.90
20929;DHT22;21895;47.072;15.132;2023-08-21T07:41:06;28.30;99.90
20929;DHT22;21895;47.072;15.132;2023-08-21T07:43:41;28.30;99.90
20929;DHT22;21895;47.072;15.132;2023-08-21T07:46:10;28.40;99.90
20929;DHT22;21895;47.072;15.132;2023-08-21T07:48:39;28.60;99.80
20929;DHT22;21895;47.072;15.132;2023-08-21T07:51:06;28.70;99.80
20929;DHT22;21895;47.072;15.132;2023-08-21T07:53:33;28.80;99.80
20929;DHT22;21895;47.072;15.132;2023-08-21T07:56:01;29.00;99.80
20929;DHT22;21895;47.072;15.132;2023-08-21T07:58:29;29.10;99.90
20929;DHT22;21895;47.072;15.132;2023-08-21T08:00:57;29.20;99.90
20929;DHT22;21895;47.072;15.132;2023-08-21T08:03:23;29.30;99.50
20929;DHT22;21895;47.072;15.132;2023-08-21T08:05:50;29.40;99.60
20929;DHT22;21895;47.072;15.132;2023-08-21T08:08:21;29.40;98.20
20929;DHT22;21895;47.072;15.132;2023-08-21T08:10:48;29.60;98.90
20929;DHT22;21895;47.072;15.132;2023-08-21T08:13:15;29.80;99.00
20929;DHT22;21895;47.072;15.132;2023-08-21T08:15:41;29.80;99.10
20929;DHT22;21895;47.072;15.132;2023-08-21T08:18:12;29.90;99.40
20929;DHT22;21895;47.072;15.132;2023-08-21T08:20:39;30.00;98.90
20929;DHT22;21895;47.072;15.132;2023-08-21T08:23:06;30.10;99.00
20929;DHT22;21895;47.072;15.132;2023-08-21T08:25:32;30.20;99.60
20929;DHT22;21895;47.072;15.132;2023-08-21T08:27:59;30.20;98.90
20929;DHT22;21895;47.072;15.132;2023-08-21T08:30:25;30.10;99.30
20929;DHT22;21895;47.072;15.132;2023-08-21T08:32:52;30.30;99.50
20929;DHT22;21895;47.072;15.132;2023-08-21T08:35:19;30.40;98.70
20929;DHT22;21895;47.072;15.132;2023-08-21T08:37:45;30.60;99.00
20929;DHT22;21895;47.072;15.132;2023-08-21T08:40:12;30.80;97.70
20929;DHT22;21895;47.072;15.132;2023-08-21T08:42:39;30.70;97.90
20929;DHT22;21895;47.072;15.132;2023-08-21T08:45:06;30.90;98.00
20929;DHT22;21895;47.072;15.132;2023-08-21T08:47:34;30.90;98.70
20929;DHT22;21895;47.072;15.132;2023-08-21T08:50:05;31.00;96.70
20929;DHT22;21895;47.072;15.132;2023-08-21T08:52:36;31.20;95.60
20929;DHT22;21895;47.072;15.132;2023-08-21T08:55:07;31.10;95.90
20929;DHT22;21895;47.072;15.132;2023-08-21T08:57:34;31.00;96.50
20929;DHT22;21895;47.072;15.132;2023-08-21T09:00:02;31.10;94.10
20929;DHT22;21895;47.072;15.132;2023-08-21T09:02:30;31.30;93.60
20929;DHT22;21895;47.072;15.132;2023-08-21T09:04:57;31.40;95.00
20929;DHT22;21895;47.072;15.132;2023-08-21T09:07:25;31.40;94.80
20929;DHT22;21895;47.072;15.132;2023-08-21T09:09:51;31.40;94.50
20929;DHT22;21895;47.072;15.132;2023-08-21T09:12:19;31.50;93.70
20929;DHT22;21895;47.072;15.132;2023-08-21T09:14:46;31.60;94.00
20929;DHT22;21895;47.072;15.132;2023-08-21T09:17:14;31.70;91.60
20929;DHT22;21895;47.072;15.132;2023-08-21T09:19:41;31.70;91.80
20929;DHT22;21895;47.072;15.132;2023-08-21T09:22:13;31.80;92.30
20929;DHT22;21895;47.072;15.132;2023-08-21T09:25:06;31.80;92.10
20929;DHT22;21895;47.072;15.132;2023-08-21T09:27:36;31.90;92.40
20929;DHT22;21895;47.072;15.132;2023-08-21T09:30:05;31.90;91.30
20929;DHT22;21895;47.072;15.132;2023-08-21T09:32:56;31.90;92.30
20929;DHT22;21895;47.072;15.132;2023-08-21T09:35:26;31.80;91.80
20929;DHT22;21895;47.072;15.132;2023-08-21T09:37:53;31.80;91.20
20929;DHT22;21895;47.072;15.132;2023-08-21T09:40:20;31.80;90.80
20929;DHT22;21895;47.072;15.132;2023-08-21T09:42:55;31.90;90.80
20929;DHT22;21895;47.072;15.132;2023-08-21T09:45:28;32.00;90.20
20929;DHT22;21895;47.072;15.132;2023-08-21T09:47:56;32.20;86.90
20929;DHT22;21895;47.072;15.132;2023-08-21T09:50:24;32.20;89.10
20929;DHT22;21895;47.072;15.132;2023-08-21T09:52:52;32.30;89.50
20929;DHT22;21895;47.072;15.132;2023-08-21T09:55:20;32.30;87.40
20929;DHT22;21895;47.072;15.132;2023-08-21T09:57:48;32.40;87.20
20929;DHT22;21895;47.072;15.132;2023-08-21T10:00:30;32.40;82.90
20929;DHT22;21895;47.072;15.132;2023-08-21T10:03:02;32.40;85.10
20929;DHT22;21895;47.072;15.132;2023-08-21T10:05:34;32.30;84.00
20929;DHT22;21895;47.072;15.132;2023-08-21T10:08:06;32.40;87.10
20929;DHT22;21895;47.072;15.132;2023-08-21T10:10:37;32.40;86.80
20929;DHT22;21895;47.072;15.132;2023-08-21T10:13:05;32.40;85.90
20929;DHT22;21895;47.072;15.132;2023-08-21T10:15:36;32.40;85.60
20929;DHT22;21895;47.072;15.132;2023-08-21T10:18:24;32.50;84.10
20929;DHT22;21895;47.072;15.132;2023-08-21T10:20:55;32.50;82.90
20929;DHT22;21895;47.072;15.132;2023-08-21T10:23:27;32.60;83.20
20929;DHT22;21895;47.072;15.132;2023-08-21T10:25:59;32.50;84.00
20929;DHT22;21895;47.072;15.132;2023-08-21T10:30:49;32.60;79.20
20929;DHT22;21895;47.072;15.132;2023-08-21T10:33:16;32.40;80.10
20929;DHT22;21895;47.072;15.132;2023-08-21T10:35:45;32.50;85.50
20929;DHT22;21895;47.072;15.132;2023-08-21T10:38:16;32.40;84.60
20929;DHT22;21895;47.072;15.132;2023-08-21T10:41:08;32.40;83.50
20929;DHT22;21895;47.072;15.132;2023-08-21T10:43:44;32.50;82.90
20929;DHT22;21895;47.072;15.132;2023-08-21T10:46:11;32.40;84.40
20929;DHT22;21895;47.072;15.132;2023-08-21T10:48:39;32.40;83.10
20929;DHT22;21895;47.072;15.132;2023-08-21T10:51:07;32.40;83.90
20929;DHT22;21895;47.072;15.132;2023-08-21T10:53:35;32.50;81.90
20929;DHT22;21895;47.072;15.132;2023-08-21T10:56:03;32.50;82.10
20929;DHT22;21895;47.072;15.132;2023-08-21T10:58:42;32.60;83.10
20929;DHT22;21895;47.072;15.132;2023-08-21T11:01:13;32.60;80.60
20929;DHT22;21895;47.072;15.132;2023-08-21T11:03:40;32.60;82.40
20929;DHT22;21895;47.072;15.132;2023-08-21T11:06:09;32.60;83.20
20929;DHT22;21895;47.072;15.132;2023-08-21T11:08:36;32.60;81.90
20929;DHT22;21895;47.072;15.132;2023-08-21T11:11:04;32.70;81.30
20929;DHT22;21895;47.072;15.132;2023-08-21T11:13:32;32.60;81.80
20929;DHT22;21895;47.072;15.132;2023-08-21T11:16:04;32.70;82.00
20929;DHT22;21895;47.072;15.132;2023-08-21T11:18:36;32.70;82.80
20929;DHT22;21895;47.072;15.132;2023-08-21T11:21:08;32.80;84.10
20929;DHT22;21895;47.072;15.132;2023-08-21T11:23:37;33.00;82.00
20929;DHT22;21895;47.072;15.132;2023-08-21T11:26:11;32.90;82.00
20929;DHT22;21895;47.072;15.132;2023-08-21T11:28:48;32.90;82.30
20929;DHT22;21895;47.072;15.132;2023-08-21T11:31:15;32.70;81.70
20929;DHT22;21895;47.072;15.132;2023-08-21T11:33:49;32.80;81.70
20929;DHT22;21895;47.072;15.132;2023-08-21T11:36:16;32.80;81.10
20929;DHT22;21895;47.072;15.132;2023-08-21T11:39:00;32.80;83.80
20929;DHT22;21895;47.072;15.132;2023-08-21T11:41:31;32.80;83.30
20929;DHT22;21895;47.072;15.132;2023-08-21T11:44:04;32.90;82.40
20929;DHT22;21895;47.072;15.132;2023-08-21T11:46:31;32.90;83.00
20929;DHT22;21895;47.072;15.132;2023-08-21T11:48:57;32.80;83.20
20929;DHT22;21895;47.072;15.132;2023-08-21T11:51:26;32.80;82.60
20929;DHT22;21895;47.072;15.132;2023-08-21T11:53:53;32.80;81.50
20929;DHT22;21895;47.072;15.132;2023-08-21T11:56:20;32.80;83.10
20929;DHT22;21895;47.072;15.132;2023-08-21T11:58:50;32.80;80.80
20929;DHT22;21895;47.072;15.132;2023-08-21T12:01:20;32.80;81.40
20929;DHT22;21895;47.072;15.132;2023-08-21T12:03:47;32.70;82.40
20929;DHT22;21895;47.072;15.132;2023-08-21T12:06:21;32.70;80.30
20929;DHT22;21895;47.072;15.132;2023-08-21T12:08:48;32.70;80.00
20929;DHT22;21895;47.072;15.132;2023-08-21T12:11:14;32.70;79.60
20929;DHT22;21895;47.072;15.132;2023-08-21T12:13:41;32.80;79.90
20929;DHT22;21895;47.072;15.132;2023-08-21T12:16:08;32.70;81.20
20929;DHT22;21895;47.072;15.132;2023-08-21T12:18:34;32.70;79.30
20929;DHT22;21895;47.072;15.132;2023-08-21T12:21:01;32.70;80.50
20929;DHT22;21895;47.072;15.132;2023-08-21T12:23:28;33.00;80.40
20929;DHT22;21895;47.072;15.132;2023-08-21T12:25:54;33.00;81.50
20929;DHT22;21895;47.072;15.132;2023-08-21T12:28:21;32.80;82.00
20929;DHT22;21895;47.072;15.132;2023-08-21T12:30:48;32.80;81.10
20929;DHT22;21895;47.072;15.132;2023-08-21T12:33:14;32.90;83.10
20929;DHT22;21895;47.072;15.132;2023-08-21T12:35:49;32.80;81.30
20929;DHT22;21895;47.072;15.132;2023-08-21T12:38:16;32.80;81.50
20929;DHT22;21895;47.072;15.132;2023-08-21T12:40:42;32.80;81.50
20929;DHT22;21895;47.072;15.132;2023-08-21T12:43:09;32.70;81.10
20929;DHT22;21895;47.072;15.132;2023-08-21T12:45:36;32.70;80.60
20929;DHT22;21895;47.072;15.132;2023-08-21T12:48:04;32.70;80.50
20929;DHT22;21895;47.072;15.132;2023-08-21T12:50:31;32.70;80.20
20929;DHT22;21895;47.072;15.132;2023-08-21T12:52:57;32.70;80.00
20929;DHT22;21895;47.072;15.132;2023-08-21T12:55:24;32.70;80.70
20929;DHT22;21895;47.072;15.132;2023-08-21T12:57:51;32.70;80.50
20929;DHT22;21895;47.072;15.132;2023-08-21T13:00:17;32.70;80.70
20929;DHT22;21895;47.072;15.132;2023-08-21T13:02:44;32.70;81.20
20929;DHT22;21895;47.072;15.132;2023-08-21T13:05:11;32.60;82.60
20929;DHT22;21895;47.072;15.132;2023-08-21T13:07:37;32.70;81.00
20929;DHT22;21895;47.072;15.132;2023-08-21T13:10:04;32.80;82.30
20929;DHT22;21895;47.072;15.132;2023-08-21T13:12:31;32.70;80.90
20929;DHT22;21895;47.072;15.132;2023-08-21T13:14:58;32.80;79.20
20929;DHT22;21895;47.072;15.132;2023-08-21T13:17:24;32.80;80.60
20929;DHT22;21895;47.072;15.132;2023-08-21T13:19:51;32.70;80.10
20929;DHT22;21895;47.072;15.132;2023-08-21T13:22:18;32.70;79.50
20929;DHT22;21895;47.072;15.132;2023-08-21T13:24:44;32.70;81.30
20929;DHT22;21895;47.072;15.132;2023-08-21T13:27:11;32.70;80.80
20929;DHT22;21895;47.072;15.132;2023-08-21T13:29:38;32.70;79.40
20929;DHT22;21895;47.072;15.132;2023-08-21T13:32:05;32.60;79.30
20929;DHT22;21895;47.072;15.132;2023-08-21T13:34:32;32.60;79.40
20929;DHT22;21895;47.072;15.132;2023-08-21T13:36:58;32.40;79.30
20929;DHT22;21895;47.072;15.132;2023-08-21T13:39:25;32.50;79.60
20929;DHT22;21895;47.072;15.132;2023-08-21T13:41:52;32.50;79.50
20929;DHT22;21895;47.072;15.132;2023-08-21T13:44:19;32.50;79.20
20929;DHT22;21895;47.072;15.132;2023-08-21T13:46:46;32.40;77.80
20929;DHT22;21895;47.072;15.132;2023-08-21T13:49:13;32.50;78.90
20929;DHT22;21895;47.072;15.132;2023-08-21T13:51:39;32.40;79.20
20929;DHT22;21895;47.072;15.132;2023-08-21T13:54:07;32.40;79.70
20929;DHT22;21895;47.072;15.132;2023-08-21T13:56:33;32.40;78.00
20929;DHT22;21895;47.072;15.132;2023-08-21T13:59:00;32.50;79.00
20929;DHT22;21895;47.072;15.132;2023-08-21T14:01:26;32.60;79.20
20929;DHT22;21895;47.072;15.132;2023-08-21T14:03:53;32.50;78.70
20929;DHT22;21895;47.072;15.132;2023-08-21T14:06:19;32.40;79.20
20929;DHT22;21895;47.072;15.132;2023-08-21T14:08:46;32.30;79.30
20929;DHT22;21895;47.072;15.132;2023-08-21T14:11:13;32.30;80.00
20929;DHT22;21895;47.072;15.132;2023-08-21T14:13:39;32.30;80.20
20929;DHT22;21895;47.072;15.132;2023-08-21T14:16:06;32.30;78.80
20929;DHT22;21895;47.072;15.132;2023-08-21T14:18:32;32.30;80.80
20929;DHT22;21895;47.072;15.132;2023-08-21T14:20:59;32.30;78.90
20929;DHT22;21895;47.072;15.132;2023-08-21T14:23:26;32.30;80.50
20929;DHT22;21895;47.072;15.132;2023-08-21T14:25:52;32.30;80.00
20929;DHT22;21895;47.072;15.132;2023-08-21T14:28:19;32.30;81.60
20929;DHT22;21895;47.072;15.132;2023-08-21T14:30:46;32.20;79.90
20929;DHT22;21895;47.072;15.132;2023-08-21T14:33:13;32.10;80.10
20929;DHT22;21895;47.072;15.132;2023-08-21T14:35:40;32.00;78.90
20929;DHT22;21895;47.072;15.132;2023-08-21T14:38:06;32.10;78.60
20929;DHT22;21895;47.072;15.132;2023-08-21T14:40:33;32.00;78.70
20929;DHT22;21895;47.072;15.132;2023-08-21T14:42:59;32.00;79.20
20929;DHT22;21895;47.072;15.132;2023-08-21T14:45:26;32.00;79.50
20929;DHT22;21895;47.072;15.132;2023-08-21T14:47:53;32.00;79.80
20929;DHT22;21895;47.072;15.132;2023-08-21T14:50:19;31.90;81.90
20929;DHT22;21895;47.072;15.132;2023-08-21T14:52:47;31.90;78.60
20929;DHT22;21895;47.072;15.132;2023-08-21T14:55:14;31.90;79.70
20929;DHT22;21895;47.072;15.132;2023-08-21T14:57:40;32.00;80.70
20929;DHT22;21895;47.072;15.132;2023-08-21T15:00:07;31.90;81.90
20929;DHT22;21895;47.072;15.132;2023-08-21T15:02:35;31.80;82.40
20929;DHT22;21895;47.072;15.132;2023-08-21T15:05:03;31.70;82.20
20929;DHT22;21895;47.072;15.132;2023-08-21T15:07:33;31.70;81.50
20929;DHT22;21895;47.072;15.132;2023-08-21T15:09:59;31.70;81.50
20929;DHT22;21895;47.072;15.132;2023-08-21T15:12:26;31.70;82.40
20929;DHT22;21895;47.072;15.132;2023-08-21T15:14:53;31.70;82.60
20929;DHT22;21895;47.072;15.132;2023-08-21T15:17:19;31.60;83.10
20929;DHT22;21895;47.072;15.132;2023-08-21T15:19:47;31.50;82.90
20929;DHT22;21895;47.072;15.132;2023-08-21T15:22:15;31.50;83.10